sensor_id;sensor_type;location;lat;lon;timestamp;temperature;humidity
10306;DHT22;5198;52.382;9.020;2023-12-29T04:46:41;10.10;99.90
10306;DHT22;5198;52.382;9.020;2023-12-29T04:50:44;10.10;99.90
10306;DHT22;5198;52.382;9.020;2023-12-29T04:54:47;10.10;99.90
10306;DHT22;5198;52.382;9.020;2023-12-29T04:58:51;10.10;99.90
10306;DHT22;5198;52.382;9.020;2023-12-29T05:02:56;10.10;99.90
10306;DHT22;5198;52.382;9.020;2023-12-29T05:06:59;10.20;99.90
10306;DHT22;5198;52.382;9.020;2023-12-29T05:11:02;10.20;99.90
10306;DHT22;5198;52.382;9.020;2023-12-29T05:15:05;10.20;99.90
10306;DHT22;5198;52.382;9.020;2023-12-29T05:19:10;10.20;99.90
10306;DHT22;5198;52.382;9.020;2023-12-29T05:23:13;10.20;99.90
10306;DHT22;5198;52.382;9.020;2023-12-29T05:27:15;10.20;99.90
10306;DHT22;5198;52.382;9.020;2023-12-29T05:31:18;10.30;99.90
10306;DHT22;5198;52.382;9.020;2023-12-29T05:35:23;10.20;99.90
10306;DHT22;5198;52.382;9.020;2023-12-29T05:39:26;10.20;99.90
10306;DHT22;5198;52.382;9.020;2023-12-29T05:43:28;10.20;99.90
10306;DHT22;5198;52.382;9.020;2023-12-29T05:47:31;10.20;99.90
10306;DHT22;5198;52.382;9.020;2023-12-29T05:51:36;10.20;99.90
10306;DHT22;5198;52.382;9.020;2023-12-29T05:55:38;10.20;99.90
10306;DHT22;5198;52.382;9.020;2023-12-29T05:59:42;10.30;99.90
10306;DHT22;5198;52.382;9.020;2023-12-29T06:03:45;10.30;99.90
10306;DHT22;5198;52.382;9.020;2023-12-29T06:07:51;10.30;99.90
10306;DHT22;5198;52.382;9.020;2023-12-29T06:11:54;10.30;99.90
10306;DHT22;5198;52.382;9.020;2023-12-29T06:15:57;10.30;99.90
10306;DHT22;5198;52.382;9.020;2023-12-29T06:20:01;10.20;99.90
10306;DHT22;5198;52.382;9.020;2023-12-29T06:24:08;10.20;99.90
10306;DHT22;5198;52.382;9.020;2023-12-29T06:28:11;10.20;99.90
10306;DHT22;5198;52.382;9.020;2023-12-29T06:32:14;10.20;99.90
10306;DHT22;5198;52.382;9.020;2023-12-29T06:36:17;10.10;99.90
10306;DHT22;5198;52.382;9.020;2023-12-29T06:40:21;10.10;99.90
10306;DHT22;5198;52.382;9.020;2023-12-29T06:44:24;10.10;99.90
10306;DHT22;5198;52.382;9.020;2023-12-29T06:48:27;10.00;99.90
10306;DHT22;5198;52.382;9.020;2023-12-29T06:52:30;10.00;99.90
10306;DHT22;5198;52.382;9.020;2023-12-29T06:56:37;10.00;99.90
10306;DHT22;5198;52.382;9.020;2023-12-29T07:00:41;10.00;99.90
10306;DHT22;5198;52.382;9.020;2023-12-29T07:04:45;10.00;99.90
10306;DHT22;5198;52.382;9.020;2023-12-29T07:08:48;10.00;99.90
10306;DHT22;5198;52.382;9.020;2023-12-29T07:12:52;10.00;99.90
10306;DHT22;5198;52.382;9.020;2023-12-29T07:16:55;10.00;99.90
10306;DHT22;5198;52.382;9.020;2023-12-29T07:20:58;10.00;99.90
10306;DHT22;5198;52.382;9.020;2023-12-29T07:25:01;10.00;99.90
10306;DHT22;5198;52.382;9.020;2023-12-29T07:29:05;10.10;99.90
10306;DHT22;5198;52.382;9.020;2023-12-29T07:33:08;10.10;99.90
10306;DHT22;5198;52.382;9.020;2023-12-29T07:37:11;10.10;99.90
10306;DHT22;5198;52.382;9.020;2023-12-29T07:41:15;10.10;99.90
10306;DHT22;5198;52.382;9.020;2023-12-29T07:45:20;10.20;99.90
10306;DHT22;5198;52.382;9.020;2023-12-29T07:49:23;10.20;99.90
10306;DHT22;5198;52.382;9.020;2023-12-29T07:53:26;10.20;99.90
10306;DHT22;5198;52.382;9.020;2023-12-29T07:57:29;10.20;99.90
10306;DHT22;5198;52.382;9.020;2023-12-29T08:01:33;10.30;99.90
10306;DHT22;5198;52.382;9.020;2023-12-29T08:05:38;10.30;99.90
10306;DHT22;5198;52.382;9.020;2023-12-29T08:09:41;10.30;99.90
10306;DHT22;5198;52.382;9.020;2023-12-29T08:13:46;10.30;99.90
10306;DHT22;5198;52.382;9.020;2023-12-29T15:16:49;10.10;99.90
10306;DHT22;5198;52.382;9.020;2023-12-29T15:20:52;10.10;99.90
10306;DHT22;5198;52.382;9.020;2023-12-29T15:24:55;10.10;99.90
10306;DHT22;5198;52.382;9.020;2023-12-29T15:28:58;10.10;99.90
10306;DHT22;5198;52.382;9.020;2023-12-29T15:33:02;10.20;99.90
10306;DHT22;5198;52.382;9.020;2023-12-29T15:37:06;10.20;99.90
10306;DHT22;5198;52.382;9.020;2023-12-29T15:41:09;10.20;99.90
10306;DHT22;5198;52.382;9.020;2023-12-29T15:45:19;10.30;99.90
10306;DHT22;5198;52.382;9.020;2023-12-29T15:49:26;10.30;99.90
10306;DHT22;5198;52.382;9.020;2023-12-29T15:53:29;10.30;99.90
10306;DHT22;5198;52.382;9.020;2023-12-29T15:57:33;10.30;99.90
10306;DHT22;5198;52.382;9.020;2023-12-29T16:01:35;10.30;99.90
10306;DHT22;5198;52.382;9.020;2023-12-29T16:05:40;10.30;99.90
10306;DHT22;5198;52.382;9.020;2023-12-29T16:09:43;10.30;99.90
10306;DHT22;5198;52.382;9.020;2023-12-29T16:13:46;10.20;99.90
10306;DHT22;5198;52.382;9.020;2023-12-29T16:17:49;10.20;99.90
10306;DHT22;5198;52.382;9.020;2023-12-29T16:21:55;10.30;99.90
10306;DHT22;5198;52.382;9.020;2023-12-29T16:25:58;10.30;99.90
10306;DHT22;5198;52.382;9.020;2023-12-29T16:30:01;10.30;99.90
10306;DHT22;5198;52.382;9.020;2023-12-29T16:34:04;10.30;99.90
10306;DHT22;5198;52.382;9.020;2023-12-29T16:38:10;10.30;99.90
10306;DHT22;5198;52.382;9.020;2023-12-29T16:42:15;10.30;99.90
10306;DHT22;5198;52.382;9.020;2023-12-29T16:46:20;10.30;99.90
10306;DHT22;5198;52.382;9.020;2023-12-29T16:50:23;10.30;99.90
10306;DHT22;5198;52.382;9.020;2023-12-29T16:54:27;10.30;99.90
10306;DHT22;5198;52.382;9.020;2023-12-29T16:58:31;10.30;99.90
10306;DHT22;5198;52.382;9.020;2023-12-29T17:02:34;10.30;99.90
10306;DHT22;5198;52.382;9.020;2023-12-29T17:06:38;10.30;99.90
10306;DHT22;5198;52.382;9.020;2023-12-29T17:10:44;10.30;99.90
10306;DHT22;5198;52.382;9.020;2023-12-29T17:18:55;10.30;99.90
10306;DHT22;5198;52.382;9.020;2023-12-29T17:22:58;10.20;99.90
10306;DHT22;5198;52.382;9.020;2023-12-29T17:27:03;10.20;99.90
10306;DHT22;5198;52.382;9.020;2023-12-29T17:31:06;10.10;99.90
10306;DHT22;5198;52.382;9.020;2023-12-29T17:35:09;10.10;99.90
10306;DHT22;5198;52.382;9.020;2023-12-29T17:39:12;10.00;99.90
10306;DHT22;5198;52.382;9.020;2023-12-29T17:43:16;9.90;99.90
10306;DHT22;5198;52.382;9.020;2023-12-29T17:47:19;9.90;99.90
10306;DHT22;5198;52.382;9.020;2023-12-29T17:51:27;9.80;99.90
10306;DHT22;5198;52.382;9.020;2023-12-29T17:55:30;9.70;99.90
10306;DHT22;5198;52.382;9.020;2023-12-29T17:59:35;9.70;99.90
10306;DHT22;5198;52.382;9.020;2023-12-29T18:03:38;9.60;99.90
10306;DHT22;5198;52.382;9.020;2023-12-29T18:07:41;9.60;99.90
10306;DHT22;5198;52.382;9.020;2023-12-29T18:11:44;9.60;99.90
10306;DHT22;5198;52.382;9.020;2023-12-29T18:15:48;9.50;99.90
10306;DHT22;5198;52.382;9.020;2023-12-29T18:19:52;9.50;99.90
10306;DHT22;5198;52.382;9.020;2023-12-29T18:23:56;9.40;99.90
10306;DHT22;5198;52.382;9.020;2023-12-29T18:28:14;9.40;99.90
10306;DHT22;5198;52.382;9.020;2023-12-29T18:32:26;9.30;99.90
10306;DHT22;5198;52.382;9.020;2023-12-29T18:36:29;9.30;99.90
10306;DHT22;5198;52.382;9.020;2023-12-29T18:40:32;9.20;99.90
10306;DHT22;5198;52.382;9.020;2023-12-29T18:44:35;9.20;99.90
10306;DHT22;5198;52.382;9.020;2023-12-29T18:48:45;9.10;99.90
10306;DHT22;5198;52.382;9.020;2023-12-29T18:52:54;9.10;99.90
10306;DHT22;5198;52.382;9.020;2023-12-29T18:56:57;9.10;99.90
10306;DHT22;5198;52.382;9.020;2023-12-29T19:01:00;9.10;99.90
10306;DHT22;5198;52.382;9.020;2023-12-29T19:05:06;9.10;99.90
10306;DHT22;5198;52.382;9.020;2023-12-29T19:09:12;9.10;99.90
10306;DHT22;5198;52.382;9.020;2023-12-29T19:13:15;9.10;99.90
10306;DHT22;5198;52.382;9.020;2023-12-29T19:17:25;9.10;99.90
10306;DHT22;5198;52.382;9.020;2023-12-29T19:21:31;9.20;99.90
10306;DHT22;5198;52.382;9.020;2023-12-29T19:29:45;9.20;99.90
10306;DHT22;5198;52.382;9.020;2023-12-29T19:34:04;9.30;99.90
10306;DHT22;5198;52.382;9.020;2023-12-29T19:38:10;9.40;99.90
10306;DHT22;5198;52.382;9.020;2023-12-29T19:42:16;9.50;99.90
10306;DHT22;5198;52.382;9.020;2023-12-29T19:46:21;9.50;99.90
10306;DHT22;5198;52.382;9.020;2023-12-29T19:50:25;9.60;99.90
10306;DHT22;5198;52.382;9.020;2023-12-29T19:54:30;9.60;99.90
10306;DHT22;5198;52.382;9.020;2023-12-29T19:58:33;9.70;99.90
10306;DHT22;5198;52.382;9.020;2023-12-29T20:02:36;9.70;99.90
10306;DHT22;5198;52.382;9.020;2023-12-29T20:06:41;9.70;99.90
10306;DHT22;5198;52.382;9.020;2023-12-29T20:10:49;9.60;99.90
10306;DHT22;5198;52.382;9.020;2023-12-29T20:14:52;9.50;99.90
10306;DHT22;5198;52.382;9.020;2023-12-29T20:18:56;9.40;99.90
10306;DHT22;5198;52.382;9.020;2023-12-29T20:23:00;9.20;99.90
10306;DHT22;5198;52.382;9.020;2023-12-29T20:27:05;9.00;99.90
10306;DHT22;5198;52.382;9.020;2023-12-29T20:35:36;8.80;99.90
10306;DHT22;5198;52.382;9.020;2023-12-29T20:39:43;8.70;99.90
10306;DHT22;5198;52.382;9.020;2023-12-29T20:43:54;8.60;99.90
10306;DHT22;5198;52.382;9.020;2023-12-29T20:48:05;8.50;99.90
10306;DHT22;5198;52.382;9.020;2023-12-29T20:52:14;8.40;99.90
10306;DHT22;5198;52.382;9.020;2023-12-29T20:56:19;8.30;99.90
10306;DHT22;5198;52.382;9.020;2023-12-29T21:00:24;8.20;99.90
10306;DHT22;5198;52.382;9.020;2023-12-29T21:04:27;8.10;99.90
10306;DHT22;5198;52.382;9.020;2023-12-29T21:08:32;8.10;99.90
10306;DHT22;5198;52.382;9.020;2023-12-29T21:12:36;8.00;99.90
10306;DHT22;5198;52.382;9.020;2023-12-29T21:16:40;8.00;99.90
10306;DHT22;5198;52.382;9.020;2023-12-29T21:20:44;7.90;99.90
10306;DHT22;5198;52.382;9.020;2023-12-29T21:25:00;7.90;99.90
10306;DHT22;5198;52.382;9.020;2023-12-29T21:29:09;7.80;99.90
10306;DHT22;5198;52.382;9.020;2023-12-29T21:33:20;7.80;99.90
10306;DHT22;5198;52.382;9.020;2023-12-29T21:37:23;7.70;99.90
10306;DHT22;5198;52.382;9.020;2023-12-29T21:45:55;7.60;99.90
10306;DHT22;5198;52.382;9.020;2023-12-29T21:54:24;7.50;99.90
10306;DHT22;5198;52.382;9.020;2023-12-29T21:58:28;7.50;99.90
10306;DHT22;5198;52.382;9.020;2023-12-29T22:02:31;7.50;99.90
10306;DHT22;5198;52.382;9.020;2023-12-29T22:06:39;7.50;99.90
10306;DHT22;5198;52.382;9.020;2023-12-29T22:10:44;7.50;99.90
10306;DHT22;5198;52.382;9.020;2023-12-29T22:14:47;7.50;99.90
10306;DHT22;5198;52.382;9.020;2023-12-29T22:18:50;7.50;99.90
10306;DHT22;5198;52.382;9.020;2023-12-29T22:22:54;7.50;99.90
10306;DHT22;5198;52.382;9.020;2023-12-29T22:27:02;7.50;99.90
10306;DHT22;5198;52.382;9.020;2023-12-29T22:31:06;7.50;99.90
10306;DHT22;5198;52.382;9.020;2023-12-29T22:35:10;7.50;99.90
10306;DHT22;5198;52.382;9.020;2023-12-29T22:39:16;7.50;99.90
10306;DHT22;5198;52.382;9.020;2023-12-29T22:43:21;7.50;99.90
10306;DHT22;5198;52.382;9.020;2023-12-29T22:47:25;7.50;99.90
10306;DHT22;5198;52.382;9.020;2023-12-29T22:51:28;7.50;99.90
10306;DHT22;5198;52.382;9.020;2023-12-29T22:55:35;7.60;99.90
10306;DHT22;5198;52.382;9.020;2023-12-29T22:59:40;7.60;99.90
10306;DHT22;5198;52.382;9.020;2023-12-29T23:03:44;7.60;99.90
10306;DHT22;5198;52.382;9.020;2023-12-29T23:07:48;7.70;99.90
10306;DHT22;5198;52.382;9.020;2023-12-29T23:11:51;7.70;99.90
10306;DHT22;5198;52.382;9.020;2023-12-29T23:15:56;7.70;99.90
10306;DHT22;5198;52.382;9.020;2023-12-29T23:20:00;7.80;99.90
10306;DHT22;5198;52.382;9.020;2023-12-29T23:24:03;7.80;99.90
10306;DHT22;5198;52.382;9.020;2023-12-29T23:28:06;7.90;99.90
10306;DHT22;5198;52.382;9.020;2023-12-29T23:36:26;8.00;99.90
10306;DHT22;5198;52.382;9.020;2023-12-29T23:40:29;8.00;99.90
10306;DHT22;5198;52.382;9.020;2023-12-29T23:44:32;8.10;99.90
